Time;durP1;ratioP1;P1;durP2;ratioP2;P2;SDS_P1;SDS_P2;PMS_P1;PMS_P2;Temp;Humidity;BMP_temperature;BMP_pressure;BME280_temperature;BME280_humidity;BME280_pressure;Samples;Min_cycle;Max_cycle;Signal;HPM_P1;HPM_P2
2022/05/16 00:00:50;;;;;;;10.88;4.65;;;;;;;16.37;100.00;94765.38;4795740;29;20073;-91
2022/05/16 00:03:16;;;;;;;16.50;4.80;;;;;;;16.44;100.00;94771.03;4781236;29;20030;-91
2022/05/16 00:05:41;;;;;;;11.95;5.38;;;;;;;16.60;100.00;94770.72;4795830;29;20076;-91
2022/05/16 00:08:07;;;;;;;12.60;4.75;;;;;;;16.68;100.00;94772.69;4796427;29;20037;-90
2022/05/16 00:10:33;;;;;;;11.23;5.03;;;;;;;16.80;100.00;94770.31;4780992;29;20034;-92
2022/05/16 00:13:01;;;;;;;6.82;4.25;;;;;;;16.59;100.00;94774.44;4781053;29;20042;-90
2022/05/16 00:15:28;;;;;;;10.25;4.55;;;;;;;16.52;100.00;94774.84;4780805;29;20034;-90
2022/05/16 00:17:53;;;;;;;9.60;4.68;;;;;;;16.34;100.00;94774.66;4780722;29;20130;-90
2022/05/16 00:20:19;;;;;;;12.55;4.53;;;;;;;16.14;100.00;94762.59;4795038;29;20095;-91
2022/05/16 00:26:06;;;;;;;11.95;4.70;;;;;;;16.05;100.00;94769.63;4811462;29;20042;-90
2022/05/16 00:31:55;;;;;;;11.02;4.45;;;;;;;15.83;100.00;94771.03;4811152;29;20077;-90
2022/05/16 00:34:21;;;;;;;12.60;4.60;;;;;;;15.81;100.00;94766.03;4780278;29;20039;-90
2022/05/16 00:36:47;;;;;;;9.70;4.60;;;;;;;15.81;100.00;94768.69;4780334;29;20035;-90
2022/05/16 00:39:17;;;;;;;10.75;4.60;;;;;;;15.76;100.00;94770.63;4780297;29;20407;-90
2022/05/16 00:41:43;;;;;;;9.60;4.32;;;;;;;15.83;100.00;94769.16;4780221;29;20042;-90
2022/05/16 00:44:09;;;;;;;13.13;4.47;;;;;;;15.87;100.00;94773.91;4780143;29;20034;-90
2022/05/16 00:46:35;;;;;;;8.75;4.13;;;;;;;15.86;100.00;94769.69;4780372;29;20449;-88
2022/05/16 00:49:03;;;;;;;8.27;4.10;;;;;;;15.90;100.00;94768.06;4780405;29;20066;-90
2022/05/16 00:51:56;;;;;;;12.60;4.53;;;;;;;15.96;100.00;94774.81;4780056;29;20039;-90
2022/05/16 00:54:28;;;;;;;11.80;4.18;;;;;;;16.04;100.00;94771.50;4782988;29;20441;-90
2022/05/16 00:56:59;;;;;;;12.18;3.97;;;;;;;15.90;100.00;94766.19;4779931;29;20060;-90
2022/05/16 00:59:31;;;;;;;11.85;4.47;;;;;;;15.93;100.00;94768.28;4780057;29;20357;-90
2022/05/16 01:04:50;;;;;;;8.32;3.83;;;;;;;15.84;100.00;94762.03;4796940;29;20050;-90
2022/05/16 01:07:34;;;;;;;7.53;3.95;;;;;;;15.84;100.00;94762.81;4794930;29;20031;-90
2022/05/16 01:09:59;;;;;;;;;;;;;;;15.89;100.00;94761.19;4780188;29;20354;-90
2022/05/16 01:12:35;;;;;;;9.23;3.92;;;;;;;15.86;100.00;94759.88;4779987;29;19969;-90
2022/05/16 01:15:06;;;;;;;6.82;3.70;;;;;;;15.85;100.00;94758.31;4779517;29;20447;-89
2022/05/16 01:17:31;;;;;;;8.27;3.47;;;;;;;15.79;100.00;94754.97;4779952;29;20035;-91
2022/05/16 01:19:57;;;;;;;12.27;4.25;;;;;;;15.79;100.00;94754.97;4794690;29;20031;-91
2022/05/16 01:22:30;;;;;;;8.52;4.60;;;;;;;15.67;100.00;94758.09;4794640;29;20469;-90
2022/05/16 01:24:57;;;;;;;14.13;4.20;;;;;;;15.63;100.00;94757.09;4794415;29;20042;-89
2022/05/16 01:27:23;;;;;;;9.07;3.85;;;;;;;15.71;100.00;94757.50;4780065;29;20040;-87
2022/05/16 01:29:49;;;;;;;13.73;4.20;;;;;;;15.83;100.00;94755.19;4789278;29;20031;-87
2022/05/16 01:32:14;;;;;;;11.90;3.97;;;;;;;15.81;100.00;94760.75;4826754;29;20373;-87
2022/05/16 01:34:40;;;;;;;14.93;4.32;;;;;;;15.87;100.00;94761.47;4797267;29;20035;-88
2022/05/16 01:37:06;;;;;;;11.20;4.43;;;;;;;15.88;100.00;94757.75;4812039;29;20070;-87
2022/05/16 01:39:32;;;;;;;8.93;3.50;;;;;;;15.91;100.00;94761.69;4811946;29;20386;-87
2022/05/16 01:41:57;;;;;;;9.77;4.10;;;;;;;15.73;100.00;94761.44;4812396;29;20034;-87
2022/05/16 01:44:23;;;;;;;6.75;3.55;;;;;;;15.74;100.00;94767.50;4796722;29;20353;-87
2022/05/16 01:46:48;;;;;;;10.55;4.03;;;;;;;15.71;100.00;94754.88;4827120;29;20035;-87
2022/05/16 01:49:14;;;;;;;11.00;4.22;;;;;;;15.66;100.00;94761.81;4811710;29;20030;-88
2022/05/16 01:51:40;;;;;;;14.50;4.18;;;;;;;15.57;100.00;94760.91;4809667;29;20341;-87
2022/05/16 01:54:06;;;;;;;11.90;4.28;;;;;;;15.57;100.00;94752.22;4796735;29;20087;-87
2022/05/16 01:56:35;;;;;;;15.00;4.22;;;;;;;15.40;100.00;94746.38;4796463;29;20066;-87
2022/05/16 01:59:03;;;;;;;11.48;4.18;;;;;;;15.48;100.00;94749.41;4826829;29;20038;-88
2022/05/16 02:01:45;;;;;;;12.32;3.60;;;;;;;15.42;100.00;94751.34;4796864;29;20437;-87
2022/05/16 02:04:10;;;;;;;6.95;3.70;;;;;;;15.36;100.00;94747.22;4826675;29;20441;-87
2022/05/16 02:06:36;;;;;;;7.78;3.67;;;;;;;15.37;100.00;94746.16;4826806;29;20047;-88
2022/05/16 02:09:02;;;;;;;9.90;4.13;;;;;;;15.41;100.00;94750.59;4811384;29;20030;-87
2022/05/16 02:11:28;;;;;;;15.73;3.95;;;;;;;15.44;100.00;94743.16;4827022;29;20030;-87
2022/05/16 02:13:53;;;;;;;9.73;3.65;;;;;;;15.44;100.00;94743.94;4826442;29;20030;-87
2022/05/16 02:16:19;;;;;;;13.68;3.95;;;;;;;15.38;100.00;94745.88;4811958;29;20048;-87
2022/05/16 02:18:44;;;;;;;8.68;3.70;;;;;;;15.19;100.00;94750.38;4827007;29;20402;-87
2022/05/16 02:26:38;;;;;;;9.40;4.10;;;;;;;15.27;100.00;94750.50;4813848;29;20091;-87
2022/05/16 02:29:04;;;;;;;10.35;3.88;;;;;;;15.34;100.00;94736.94;4826585;29;20026;-87
2022/05/16 02:31:29;;;;;;;13.13;4.25;;;;;;;15.36;100.00;94734.03;4811671;29;20063;-87
2022/05/16 02:33:55;;;;;;;10.23;3.63;;;;;;;15.30;100.00;94733.31;4811125;29;20038;-87
2022/05/16 02:36:20;;;;;;;7.78;3.60;;;;;;;15.24;100.00;94729.22;4811294;29;20031;-87
2022/05/16 02:38:46;;;;;;;6.65;3.63;;;;;;;15.19;100.00;94724.00;4811209;29;20146;-88
2022/05/16 02:41:12;;;;;;;11.43;4.13;;;;;;;15.43;100.00;94731.03;4811774;29;20030;-87
2022/05/16 02:43:37;;;;;;;7.88;3.60;;;;;;;15.23;100.00;94725.00;4812372;29;20060;-88
2022/05/16 02:46:02;;;;;;;9.70;3.50;;;;;;;15.08;100.00;94726.00;4814722;29;20034;-87
2022/05/16 02:48:28;;;;;;;16.63;3.95;;;;;;;15.35;100.00;94721.91;4829801;29;20125;-87
2022/05/16 02:50:53;;;;;;;8.77;3.85;;;;;;;15.37;100.00;94727.69;4800119;29;20034;-87
2022/05/16 02:53:19;;;;;;;16.83;4.72;;;;;;;15.33;100.00;94727.47;4814863;29;20034;-87
2022/05/16 02:55:44;;;;;;;8.65;3.58;;;;;;;15.22;100.00;94721.56;4800002;29;20030;-87
2022/05/16 02:58:10;;;;;;;14.35;4.07;;;;;;;14.76;100.00;94719.59;4829690;29;20026;-87
2022/05/16 03:00:37;;;;;;;10.48;3.75;;;;;;;14.93;100.00;94725.16;4829317;29;20030;-87
2022/05/16 03:03:02;;;;;;;8.60;3.38;;;;;;;15.06;100.00;94731.59;4799605;29;20026;-87
2022/05/16 03:09:05;;;;;;;7.55;3.67;;;;;;;15.11;100.00;94726.22;4830240;29;20179;-87
2022/05/16 03:11:30;;;;;;;8.50;3.55;;;;;;;15.03;100.00;94721.59;4829490;29;20445;-87
2022/05/16 03:13:56;;;;;;;8.80;3.75;;;;;;;15.33;100.00;94724.81;4814287;29;20041;-87
2022/05/16 03:16:22;;;;;;;11.85;3.63;;;;;;;15.54;100.00;94727.91;4814544;29;20032;-87
2022/05/16 03:18:47;;;;;;;12.02;3.80;;;;;;;15.79;100.00;94738.38;4814400;29;20125;-88
2022/05/16 03:21:13;;;;;;;11.63;4.13;;;;;;;15.80;100.00;94726.72;4799909;29;20359;-87
2022/05/16 03:23:38;;;;;;;8.82;3.47;;;;;;;15.69;100.00;94734.03;4798658;29;20101;-87
2022/05/16 03:26:04;;;;;;;11.50;3.70;;;;;;;15.55;100.00;94736.63;4829201;29;20390;-87
2022/05/16 03:28:29;;;;;;;9.50;3.72;;;;;;;15.61;100.00;94738.13;4799489;29;20026;-87
2022/05/16 03:30:57;;;;;;;8.98;3.55;;;;;;;15.72;100.00;94733.47;4814097;29;20173;-86
2022/05/16 03:33:23;;;;;;;10.38;3.45;;;;;;;15.79;100.00;94731.22;4813921;29;20125;-87
2022/05/16 03:35:55;;;;;;;7.18;3.83;;;;;;;15.50;100.00;94736.72;4828676;29;20068;-86
2022/05/16 03:41:07;;;;;;;11.07;3.67;;;;;;;15.21;100.00;94745.63;4828853;29;20050;-87
2022/05/16 03:43:35;;;;;;;11.85;3.53;;;;;;;15.10;100.00;94735.22;4813866;29;20035;-87
2022/05/16 03:46:00;;;;;;;10.52;4.07;;;;;;;15.10;100.00;94735.22;4813849;29;20042;-87
2022/05/16 03:48:26;;;;;;;8.35;3.58;;;;;;;15.16;100.00;94741.19;4814274;29;20042;-87
2022/05/16 03:50:51;;;;;;;13.60;3.92;;;;;;;15.06;100.00;94744.78;4798841;29;20350;-87
2022/05/16 03:53:16;;;;;;;7.53;3.53;;;;;;;14.92;100.00;94741.25;4799021;29;20038;-87
2022/05/16 03:55:42;;;;;;;8.48;3.78;;;;;;;15.02;100.00;94738.47;4797937;29;20039;-87
2022/05/16 03:58:07;;;;;;;9.77;3.60;;;;;;;15.01;100.00;94734.28;4828624;29;20097;-87
2022/05/16 04:00:33;;;;;;;10.15;4.20;;;;;;;14.96;100.00;94744.91;4813657;29;20030;-87
2022/05/16 04:02:58;;;;;;;8.82;3.55;;;;;;;14.84;100.00;94748.75;4798663;29;20034;-90
2022/05/16 04:05:24;;;;;;;13.90;4.03;;;;;;;14.80;100.00;94753.03;4813517;29;20051;-91
2022/05/16 04:07:52;;;;;;;8.15;3.90;;;;;;;14.72;100.00;94742.34;4798902;29;20083;-91
2022/05/16 04:10:19;;;;;;;13.10;3.42;;;;;;;14.96;100.00;94758.09;4798401;29;20111;-91
2022/05/16 04:12:49;;;;;;;14.27;3.97;;;;;;;15.24;100.00;94764.28;4798975;29;20154;-91
2022/05/16 04:15:15;;;;;;;7.63;4.28;;;;;;;15.54;100.00;94758.84;4813752;29;20066;-89
2022/05/16 04:17:45;;;;;;;11.93;3.70;;;;;;;15.64;100.00;94757.88;4798286;29;20142;-90
2022/05/16 04:20:12;;;;;;;12.05;4.00;;;;;;;15.72;100.00;94759.06;4813278;29;20094;-91
2022/05/16 04:22:38;;;;;;;10.43;3.42;;;;;;;15.67;100.00;94768.66;4798506;29;20069;-90
2022/05/16 04:25:08;;;;;;;8.75;3.53;;;;;;;15.80;100.00;94766.34;4813324;29;20054;-90
2022/05/16 04:27:35;;;;;;;7.10;3.50;;;;;;;15.86;100.00;94765.19;4813943;29;20026;-89
2022/05/16 04:30:01;;;;;;;10.43;3.85;;;;;;;15.96;100.00;94765.03;4798832;29;20053;-91
2022/05/16 04:32:43;;;;;;;11.57;4.40;;;;;;;15.81;100.00;94768.69;4798566;29;20026;-91
2022/05/16 04:35:09;;;;;;;11.30;4.50;;;;;;;15.41;100.00;94773.53;4798729;29;20046;-90
2022/05/16 04:37:34;;;;;;;16.95;4.65;;;;;;;15.21;100.00;94772.03;4798089;29;20513;-90
2022/05/16 04:40:00;;;;;;;7.45;4.05;;;;;;;15.36;100.00;94763.88;4798398;29;20348;-90
2022/05/16 04:42:46;;;;;;;9.25;4.05;;;;;;;15.32;100.00;94762.84;4797694;29;20039;-89
2022/05/16 04:45:14;;;;;;;8.95;4.15;;;;;;;15.59;100.00;94761.38;4810392;29;20129;-91
2022/05/16 04:47:42;;;;;;;13.05;4.30;;;;;;;15.60;100.00;94767.47;4810564;29;20037;-90
2022/05/16 04:50:09;;;;;;;9.82;4.53;;;;;;;15.84;100.00;94775.25;4798357;29;20060;-90
2022/05/16 04:52:34;;;;;;;6.45;3.90;;;;;;;15.69;100.00;94771.00;4791174;29;20031;-91
2022/05/16 04:55:00;;;;;;;10.13;4.20;;;;;;;15.90;100.00;94776.75;4791053;29;20087;-90
2022/05/16 04:57:26;;;;;;;10.30;4.20;;;;;;;15.95;100.00;94773.25;4798239;29;20036;-90
2022/05/16 04:59:52;;;;;;;13.75;4.20;;;;;;;15.97;100.00;94777.16;4812879;29;20030;-90
2022/05/16 05:02:17;;;;;;;9.82;4.80;;;;;;;15.73;100.00;94787.06;4798291;29;20519;-89
2022/05/16 05:04:46;;;;;;;11.18;4.15;;;;;;;15.97;100.00;94782.47;4798282;29;20033;-89
2022/05/16 05:07:12;;;;;;;9.75;4.30;;;;;;;16.04;100.00;94783.94;4797572;29;20041;-89
2022/05/16 05:18:58;;;;;;;9.95;4.05;;;;;;;16.08;100.00;94790.97;4828435;29;20128;-88
2022/05/16 05:21:24;;;;;;;11.40;4.32;;;;;;;16.27;100.00;94798.03;4797564;29;20141;-89
2022/05/16 05:23:51;;;;;;;7.75;4.32;;;;;;;16.42;100.00;94802.28;4812220;29;20030;-88
2022/05/16 05:26:17;;;;;;;11.35;4.38;;;;;;;16.57;100.00;94805.72;4797863;29;20062;-88
2022/05/16 05:28:42;;;;;;;8.45;4.35;;;;;;;16.70;100.00;94806.78;4812292;29;20069;-89
2022/05/16 05:31:13;;;;;;;12.80;4.60;;;;;;;16.73;100.00;94809.63;4797603;29;20418;-89
2022/05/16 05:33:38;;;;;;;13.35;4.95;;;;;;;16.41;100.00;94806.00;4812333;29;20038;-89
2022/05/16 05:36:04;;;;;;;9.88;4.20;;;;;;;16.45;100.00;94809.63;4797274;29;20034;-89
2022/05/16 05:38:29;;;;;;;9.65;4.88;;;;;;;16.78;100.00;94814.03;4811877;29;20182;-89
2022/05/16 05:40:55;;;;;;;9.57;4.50;;;;;;;16.92;100.00;94812.16;4797541;29;20030;-89
2022/05/16 05:43:24;;;;;;;12.52;4.68;;;;;;;17.12;100.00;94820.00;4797478;29;20304;-89
2022/05/16 05:45:49;;;;;;;8.02;3.90;;;;;;;17.26;100.00;94820.75;4797000;29;20437;-90
2022/05/16 05:48:15;;;;;;;9.05;4.10;;;;;;;17.29;100.00;94820.16;4812077;29;20034;-89
2022/05/16 05:50:40;;;;;;;7.57;4.60;;;;;;;17.41;100.00;94819.59;4797322;29;20038;-89
2022/05/16 05:53:05;;;;;;;11.10;4.50;;;;;;;17.37;100.00;94824.75;4797191;29;20034;-89
2022/05/16 05:55:31;;;;;;;10.88;3.80;;;;;;;17.59;100.00;94820.53;4797122;29;20046;-89
2022/05/16 05:57:57;;;;;;;13.05;4.32;;;;;;;17.51;100.00;94816.75;4797145;29;20045;-89
2022/05/16 06:00:23;;;;;;;10.45;4.97;;;;;;;17.33;100.00;94815.81;4797181;29;20094;-90
2022/05/16 06:02:48;;;;;;;10.45;5.05;;;;;;;17.64;100.00;94820.41;4796983;29;20073;-90
2022/05/16 06:05:17;;;;;;;11.27;4.30;;;;;;;17.94;100.00;94818.13;4797009;29;20037;-89
2022/05/16 06:07:42;;;;;;;11.90;4.22;;;;;;;18.18;100.00;94818.91;4797391;29;20038;-90
2022/05/16 06:10:09;;;;;;;9.05;4.03;;;;;;;18.23;100.00;94816.91;4811980;29;20039;-89
2022/05/16 06:12:35;;;;;;;8.52;3.72;;;;;;;18.45;100.00;94815.28;4796572;29;20049;-90
2022/05/16 06:15:01;;;;;;;9.52;3.67;;;;;;;18.60;100.00;94811.44;4796602;29;20043;-89
2022/05/16 06:17:27;;;;;;;9.68;4.30;;;;;;;18.76;100.00;94811.78;4811548;29;20038;-90
2022/05/16 06:19:52;;;;;;;6.25;3.70;;;;;;;18.97;100.00;94815.75;4801694;29;20038;-89
2022/05/16 06:22:18;;;;;;;18.80;4.88;;;;;;;19.00;100.00;94821.25;4817816;29;20054;-87
2022/05/16 06:27:29;;;;;;;9.43;4.20;;;;;;;18.52;100.00;94825.44;4832526;29;20082;-86
2022/05/16 06:29:58;;;;;;;9.18;4.40;;;;;;;18.39;100.00;94823.69;4832872;29;20117;-89
2022/05/16 06:32:24;;;;;;;7.05;4.10;;;;;;;18.54;100.00;94828.56;4817651;29;20030;-90
2022/05/16 06:34:51;;;;;;;9.75;4.05;;;;;;;18.57;100.00;94824.53;4817355;29;20125;-90
2022/05/16 06:37:18;;;;;;;10.18;4.20;;;;;;;18.98;100.00;94826.06;4802775;29;20038;-89
2022/05/16 06:39:45;;;;;;;8.15;4.03;;;;;;;19.17;100.00;94827.69;4803005;29;20437;-90
2022/05/16 06:42:10;;;;;;;10.35;4.15;;;;;;;19.10;100.00;94825.47;4832575;29;20034;-91
2022/05/16 06:44:36;;;;;;;13.23;4.45;;;;;;;19.27;100.00;94832.69;4817498;29;20034;-90
2022/05/16 06:47:02;;;;;;;8.18;3.85;;;;;;;19.51;100.00;94834.13;4802749;29;20042;-90
2022/05/16 06:49:27;;;;;;;11.75;4.50;;;;;;;19.54;100.00;94833.50;4817654;29;20500;-90
2022/05/16 06:51:52;;;;;;;8.38;4.43;;;;;;;19.71;100.00;94839.91;4802427;29;20065;-90
2022/05/16 06:54:18;;;;;;;11.73;4.50;;;;;;;19.77;100.00;94830.66;4817248;29;20117;-89
2022/05/16 06:56:43;;;;;;;14.48;4.25;;;;;;;19.65;100.00;94833.94;4832695;29;20041;-90
2022/05/16 06:59:09;;;;;;;9.60;4.07;;;;;;;19.88;100.00;94833.78;4802713;29;20034;-89
2022/05/16 07:01:34;;;;;;;9.18;4.25;;;;;;;19.90;100.00;94842.22;4802574;29;20069;-90
2022/05/16 07:04:00;;;;;;;14.35;4.95;;;;;;;19.80;100.00;94843.34;4802237;29;20349;-90
2022/05/16 07:06:25;;;;;;;6.40;4.20;;;;;;;19.90;100.00;94844.88;4802610;29;20071;-91
2022/05/16 07:08:51;;;;;;;14.43;4.80;;;;;;;19.85;100.00;94842.38;4802505;29;20038;-90
2022/05/16 07:11:17;;;;;;;15.95;4.63;;;;;;;19.99;100.00;94852.88;4817317;29;20053;-89
2022/05/16 07:13:42;;;;;;;11.18;4.93;;;;;;;19.86;100.00;94850.03;4802661;29;20038;-90
2022/05/16 07:16:07;;;;;;;9.82;4.45;;;;;;;20.31;100.00;94843.59;4802520;29;20124;-90
2022/05/16 07:18:33;;;;;;;12.82;4.53;;;;;;;20.40;100.00;94838.22;4817074;29;20030;-90
2022/05/16 07:20:59;;;;;;;9.00;4.10;;;;;;;20.56;100.00;94849.13;4802316;29;20079;-91
2022/05/16 07:23:25;;;;;;;13.13;4.88;;;;;;;20.32;100.00;94844.34;4817508;29;20034;-90
2022/05/16 07:28:34;;;;;;;10.38;4.93;;;;;;;20.80;100.00;94846.97;4819645;29;20045;-90
2022/05/16 07:31:00;;;;;;;11.18;4.72;;;;;;;20.72;100.00;94845.91;4814013;29;20349;-90
2022/05/16 07:33:26;;;;;;;8.85;5.38;;;;;;;20.90;100.00;94851.97;4814751;29;20121;-90
2022/05/16 07:35:52;;;;;;;10.05;5.32;;;;;;;21.15;100.00;94846.84;4814034;29;20038;-89
2022/05/16 07:38:18;;;;;;;18.88;6.00;;;;;;;21.00;100.00;94850.81;4799495;29;20097;-90
2022/05/16 07:40:44;;;;;;;16.92;6.05;;;;;;;21.23;100.00;94853.22;4799240;29;20042;-90
2022/05/16 07:43:09;;;;;;;19.15;5.80;;;;;;;21.24;100.00;94858.22;4799426;29;20061;-90
2022/05/16 07:45:35;;;;;;;16.55;5.72;;;;;;;21.52;100.00;94859.59;4828849;29;20476;-89
2022/05/16 07:48:03;;;;;;;13.38;5.82;;;;;;;21.56;100.00;94863.97;4799212;29;20083;-90
2022/05/16 07:50:29;;;;;;;17.05;5.35;;;;;;;21.64;100.00;94859.66;4799526;29;20058;-89
2022/05/16 07:52:56;;;;;;;10.02;4.93;;;;;;;21.59;100.00;94857.97;4814225;29;20121;-90
2022/05/16 07:55:23;;;;;;;12.88;5.30;;;;;;;21.53;100.00;94853.16;4828770;29;20133;-90
2022/05/16 07:57:49;;;;;;;15.50;6.07;;;;;;;21.42;100.00;94858.09;4813823;29;20045;-90
2022/05/16 08:00:15;;;;;;;11.95;4.85;;;;;;;21.67;100.00;94855.59;4813875;29;20128;-90
2022/05/16 08:02:41;;;;;;;13.18;6.00;;;;;;;21.44;100.00;94853.22;4813988;29;20334;-90
2022/05/16 08:05:09;;;;;;;10.75;5.05;;;;;;;21.73;100.00;94851.63;4813522;29;20041;-88
2022/05/16 08:07:34;;;;;;;15.65;5.80;;;;;;;21.56;100.00;94850.63;4829055;29;20103;-91
2022/05/16 08:12:44;;;;;;;12.10;5.20;;;;;;;21.53;100.00;94848.63;4828823;29;20094;-90
2022/05/16 08:15:09;;;;;;;13.30;4.95;;;;;;;21.39;100.00;94848.88;4813283;29;20039;-90
2022/05/16 08:17:35;;;;;;;11.32;5.22;;;;;;;21.46;100.00;94845.69;4828382;29;20030;-90
2022/05/16 08:20:04;;;;;;;14.23;5.15;;;;;;;21.60;100.00;94848.88;4829573;29;20504;-91
2022/05/16 08:22:33;;;;;;;10.88;5.18;;;;;;;21.95;100.00;94855.03;4798753;29;20348;-89
2022/05/16 08:24:59;;;;;;;14.25;5.78;;;;;;;21.46;100.00;94857.13;4813464;29;20090;-90
2022/05/16 08:27:25;;;;;;;12.52;5.50;;;;;;;21.72;100.00;94860.72;4813274;29;20037;-90
2022/05/16 08:29:51;;;;;;;13.18;6.13;;;;;;;21.63;100.00;94859.97;4798566;29;20034;-90
2022/05/16 08:32:19;;;;;;;13.68;5.90;;;;;;;21.89;100.00;94865.91;4828264;29;20030;-90
2022/05/16 08:34:46;;;;;;;13.65;5.60;;;;;;;21.89;100.00;94860.56;4798322;29;20034;-90
2022/05/16 08:40:04;;;;;;;12.10;5.30;;;;;;;22.25;100.00;94858.34;4815618;29;20479;-89
2022/05/16 08:42:29;;;;;;;10.60;5.47;;;;;;;22.17;100.00;94853.91;4813018;29;20030;-89
2022/05/16 08:45:23;;;;;;;24.20;5.95;;;;;;;22.24;100.00;94856.78;4811458;29;20041;-90
2022/05/16 08:47:51;;;;;;;;;;;;;;;22.40;100.00;94853.50;4789259;29;20580;-91
2022/05/16 08:50:34;;;;;;;8.82;5.70;;;;;;;22.60;100.00;94857.22;4810883;29;19963;-90
2022/05/16 08:53:42;;;;;;;14.23;6.10;;;;;;;22.33;100.00;94853.25;4794980;29;20042;-89
2022/05/16 08:56:09;;;;;;;9.02;5.20;;;;;;;22.72;100.00;94840.41;4703208;30;20056;-90
2022/05/16 08:58:45;;;;;;;14.18;6.30;;;;;;;22.68;100.00;94850.22;4741412;30;20036;-91
2022/05/16 09:01:20;;;;;;;12.27;5.22;;;;;;;22.79;100.00;94840.66;4757439;30;20436;-90
2022/05/16 09:03:55;;;;;;;17.73;6.05;;;;;;;22.84;100.00;94843.09;4755741;30;20024;-90
2022/05/16 09:06:26;;;;;;;11.70;4.75;;;;;;;22.87;100.00;94849.66;4756450;30;20064;-90
2022/05/16 09:09:02;;;;;;;14.30;5.20;;;;;;;22.95;100.00;94837.31;4770419;30;20067;-90
2022/05/16 09:11:41;;;;;;;10.30;5.95;;;;;;;22.78;100.00;94835.63;4755831;30;20451;-90
2022/05/16 09:14:21;;;;;;;13.77;5.47;;;;;;;23.09;100.00;94845.75;4755932;30;20094;-89
2022/05/16 09:17:07;;;;;;;10.95;5.80;;;;;;;23.21;100.00;94841.53;4756408;30;20036;-89
2022/05/16 09:20:06;;;;;;;17.35;5.93;;;;;;;23.10;100.00;94849.22;4756390;30;20028;-89
2022/05/16 09:23:05;;;;;;;8.63;4.88;;;;;;;22.73;100.00;94842.78;4756812;30;20124;-89
2022/05/16 09:26:12;;;;;;;9.93;5.28;;;;;;;22.92;100.00;94843.31;4740891;30;20040;-91
2022/05/16 09:28:45;;;;;;;13.63;6.38;;;;;;;23.05;100.00;94841.41;4742207;30;20048;-89
2022/05/16 09:31:20;;;;;;;15.90;6.68;;;;;;;23.26;100.00;94850.13;4770138;30;20431;-90
2022/05/16 09:33:51;;;;;;;14.13;6.53;;;;;;;23.03;100.00;94847.13;4756282;30;20086;-90
2022/05/16 09:36:32;;;;;;;14.10;5.38;;;;;;;23.29;100.00;94845.97;4755865;30;20123;-90
2022/05/16 09:38:58;;;;;;;11.27;5.90;;;;;;;23.51;100.00;94849.28;4770201;30;20034;-90
2022/05/16 09:41:44;;;;;;;14.10;5.80;;;;;;;23.39;100.00;94847.44;4755655;30;20032;-89
2022/05/16 09:44:11;;;;;;;14.13;5.70;;;;;;;23.39;100.00;94847.44;4756406;30;20043;-91
2022/05/16 09:46:40;;;;;;;10.23;5.75;;;;;;;23.47;100.00;94838.47;4755495;30;20512;-91
2022/05/16 09:49:18;;;;;;;11.52;5.97;;;;;;;23.63;100.00;94838.56;4770053;30;20036;-90
2022/05/16 09:51:52;;;;;;;13.93;5.93;;;;;;;23.34;100.00;94842.28;4755425;30;20035;-90
2022/05/16 09:54:35;;;;;;;13.07;4.95;;;;;;;23.73;100.00;94839.97;4740659;30;20040;-91
2022/05/16 09:59:52;;;;;;;19.15;5.22;;;;;;;23.86;100.00;94843.34;4755705;30;20038;-89
2022/05/16 10:02:36;;;;;;;10.23;4.43;;;;;;;23.64;100.00;94842.00;4740570;30;20036;-91
2022/05/16 10:05:29;;;;;;;11.95;5.00;;;;;;;23.91;100.00;94839.66;4752160;30;20032;-89
2022/05/16 10:08:10;;;;;;;16.67;4.97;;;;;;;23.99;100.00;94831.47;4722748;30;20039;-89
2022/05/16 10:10:39;;;;;;;14.88;6.18;;;;;;;23.95;100.00;94835.97;4745867;30;20300;-91
2022/05/16 10:13:05;;;;;;;10.77;4.93;;;;;;;23.96;100.00;94826.06;4754013;30;20068;-91
2022/05/16 10:15:31;;;;;;;10.18;5.32;;;;;;;23.97;100.00;94827.59;4737281;30;20067;-90
2022/05/16 10:17:58;;;;;;;9.10;4.93;;;;;;;23.91;100.00;94834.31;4738800;30;20483;-89
2022/05/16 10:20:34;;;;;;;16.42;5.28;;;;;;;23.85;100.00;94831.09;4722873;30;20036;-90
2022/05/16 10:23:03;;;;;;;13.30;5.50;;;;;;;24.10;100.00;94820.31;4737477;30;20033;-90
2022/05/16 10:25:42;;;;;;;9.13;4.95;;;;;;;24.07;100.00;94834.38;4752091;30;20031;-90
2022/05/16 10:28:14;;;;;;;10.60;5.00;;;;;;;24.43;100.00;94833.41;4732241;30;20102;-89
2022/05/16 10:33:32;;;;;;;10.68;5.25;;;;;;;24.51;100.00;94829.00;4767462;30;20043;-91
2022/05/16 10:36:13;;;;;;;10.38;5.25;;;;;;;24.17;100.00;94815.13;4755463;30;20040;-90
2022/05/16 10:38:47;;;;;;;13.70;5.18;;;;;;;24.59;100.00;94826.47;4754843;30;20036;-90
2022/05/16 10:41:26;;;;;;;9.88;4.60;;;;;;;24.65;100.00;94823.19;4755116;30;20328;-90
2022/05/16 10:44:12;;;;;;;9.35;4.65;;;;;;;24.38;100.00;94817.56;4739994;30;20431;-90
2022/05/16 10:46:42;;;;;;;9.75;4.60;;;;;;;24.48;100.00;94823.53;4755146;30;20461;-89
2022/05/16 10:49:15;;;;;;;11.18;4.65;;;;;;;24.28;100.00;94823.44;4769614;30;20040;-90
2022/05/16 10:51:57;;;;;;;16.25;5.50;;;;;;;24.76;100.00;94822.66;4740412;30;20089;-88
2022/05/16 10:54:25;;;;;;;12.15;4.47;;;;;;;25.13;100.00;94814.34;4754545;30;20040;-90
2022/05/16 10:57:13;;;;;;;16.95;5.65;;;;;;;24.91;100.00;94810.41;4754748;30;20032;-90
2022/05/16 10:59:44;;;;;;;10.05;4.43;;;;;;;25.25;100.00;94806.19;4754983;30;20040;-90
2022/05/16 11:02:16;;;;;;;8.35;4.57;;;;;;;25.86;100.00;94807.75;4754635;30;20036;-90
2022/05/16 11:04:50;;;;;;;17.23;5.25;;;;;;;26.29;100.00;94811.25;4755241;30;20044;-89
2022/05/16 11:07:46;;;;;;;10.25;4.30;;;;;;;26.32;74.44;94809.72;4743781;30;20086;-89
2022/05/16 11:10:14;;;;;;;9.57;3.80;;;;;;;27.03;83.66;94803.94;4758271;30;20155;-89
2022/05/16 11:13:15;;;;;;;10.85;4.38;;;;;;;26.99;79.54;94794.28;4758228;30;20040;-91
2022/05/16 11:15:45;;;;;;;14.30;3.97;;;;;;;26.71;86.88;94812.28;4758625;30;20040;-90
2022/05/16 11:18:15;;;;;;;14.77;4.80;;;;;;;26.23;86.77;94802.69;4772672;30;20036;-89
2022/05/16 11:20:51;;;;;;;10.13;4.32;;;;;;;26.72;79.14;94799.63;4743792;30;20036;-90
2022/05/16 11:23:30;;;;;;;9.95;4.30;;;;;;;26.50;82.79;94797.38;4757722;30;20036;-91
2022/05/16 11:26:17;;;;;;;15.70;4.45;;;;;;;26.46;78.43;94799.22;4758560;30;20063;-91
2022/05/16 11:29:17;;;;;;;13.25;4.53;;;;;;;25.45;87.70;94789.31;4758633;30;20039;-90
2022/05/16 11:32:15;;;;;;;9.88;4.60;;;;;;;25.28;90.97;94788.59;4758651;30;20043;-90
2022/05/16 11:35:01;;;;;;;13.15;4.65;;;;;;;24.53;100.00;94785.78;4757549;30;20076;-90
2022/05/16 11:38:11;;;;;;;14.43;5.72;;;;;;;24.17;100.00;94777.66;4758697;30;20039;-90
2022/05/16 11:41:05;;;;;;;12.32;5.18;;;;;;;23.62;100.00;94788.84;4748353;30;20044;-90
2022/05/16 11:43:32;;;;;;;12.63;4.78;;;;;;;23.77;100.00;94778.53;4757416;30;20036;-90
2022/05/16 11:46:14;;;;;;;11.32;5.03;;;;;;;23.24;100.00;94782.81;4771940;30;20044;-91
2022/05/16 11:49:21;;;;;;;9.45;5.43;;;;;;;23.85;100.00;94778.38;4772223;30;20032;-90
2022/05/16 11:52:13;;;;;;;14.27;4.90;;;;;;;23.90;100.00;94773.91;4751743;30;20051;-90
2022/05/16 11:54:43;;;;;;;13.45;5.47;;;;;;;24.59;100.00;94768.34;4758075;30;20040;-91
2022/05/16 12:03:15;;;;;;;14.65;4.85;;;;;;;25.29;100.00;94767.94;4739382;30;20033;-90
2022/05/16 12:05:55;;;;;;;;;;;;;;;;;;;;;
2022/05/16 12:14:33;;;;;;;12.73;4.15;;;;;;;25.17;96.98;94755.41;4791976;30;20058;-86
2022/05/16 12:17:07;;;;;;;12.63;4.78;;;;;;;25.10;95.07;94745.31;4791446;29;20464;-86
2022/05/16 12:19:40;;;;;;;10.93;4.80;;;;;;;25.37;87.80;94748.94;4783036;30;20140;-86
2022/05/16 12:22:19;;;;;;;11.48;4.32;;;;;;;25.37;80.46;94740.13;4789154;29;20039;-86
2022/05/16 12:24:53;;;;;;;11.73;4.07;;;;;;;25.45;83.42;94732.97;4774343;29;20031;-87
2022/05/16 12:27:35;;;;;;;12.15;4.68;;;;;;;25.28;89.32;94724.25;4775149;30;20039;-87
2022/05/16 12:30:11;;;;;;;11.73;4.68;;;;;;;25.49;100.00;94725.81;4789840;29;20035;-86
2022/05/16 12:32:37;;;;;;;11.90;4.28;;;;;;;26.02;88.01;94727.91;4773962;30;20031;-86
2022/05/16 12:35:34;;;;;;;11.20;4.50;;;;;;;26.12;91.59;94718.47;4775189;30;20319;-86